createdAt,value
2023-05-29T00:01:25.438Z,1
2023-05-29T00:03:09.144Z,1
2023-05-29T00:04:52.849Z,1
2023-05-29T00:06:36.581Z,1
2023-05-29T00:08:20.255Z,1
2023-05-29T00:10:03.965Z,1
2023-05-29T00:11:47.642Z,1
2023-05-29T00:13:31.376Z,0
2023-05-29T00:15:15.052Z,0
2023-05-29T00:16:58.762Z,1
2023-05-29T00:18:42.455Z,1
2023-05-29T00:20:26.177Z,1
2023-05-29T00:22:09.868Z,1
2023-05-29T00:23:53.558Z,0
2023-05-29T00:25:37.251Z,1
2023-05-29T00:27:20.963Z,1
2023-05-29T00:29:04.660Z,1
2023-05-29T00:30:48.385Z,1
2023-05-29T00:32:32.066Z,2
2023-05-29T00:34:15.776Z,1
2023-05-29T00:35:59.464Z,1
2023-05-29T00:37:43.178Z,1
2023-05-29T00:39:26.887Z,1
2023-05-29T00:41:10.574Z,1
2023-05-29T00:42:54.269Z,1
2023-05-29T00:44:37.982Z,0
2023-05-29T00:46:21.673Z,1
2023-05-29T00:48:05.380Z,0
2023-05-29T00:49:49.085Z,1
2023-05-29T00:51:32.772Z,1
2023-05-29T00:53:16.480Z,1
2023-05-29T00:55:00.181Z,1
2023-05-29T00:56:43.885Z,2
2023-05-29T00:58:27.588Z,2
2023-05-29T01:00:11.276Z,1
2023-05-29T01:01:54.984Z,1
2023-05-29T01:03:38.698Z,0
2023-05-29T01:05:22.386Z,1
2023-05-29T01:07:06.113Z,1
2023-05-29T01:08:49.789Z,1
2023-05-29T01:10:33.490Z,1
2023-05-29T01:12:17.191Z,2
2023-05-29T01:14:00.888Z,1
2023-05-29T01:15:44.599Z,2
2023-05-29T01:17:28.297Z,1
2023-05-29T01:19:11.995Z,0
2023-05-29T01:20:55.694Z,1
2023-05-29T01:22:39.398Z,1
2023-05-29T01:24:23.135Z,1
2023-05-29T01:26:06.805Z,0
2023-05-29T01:27:50.503Z,2
2023-05-29T01:29:34.205Z,0
2023-05-29T01:31:17.912Z,1
2023-05-29T01:33:01.608Z,0
2023-05-29T01:34:45.315Z,1
2023-05-29T01:36:29.003Z,1
2023-05-29T01:38:12.711Z,1
2023-05-29T01:39:56.417Z,1
2023-05-29T01:41:40.113Z,1
2023-05-29T01:43:23.820Z,1
2023-05-29T01:45:07.526Z,1
2023-05-29T01:46:51.224Z,1
2023-05-29T01:48:34.933Z,3
2023-05-29T01:50:18.661Z,1
2023-05-29T01:52:02.331Z,1
2023-05-29T01:53:46.038Z,1
2023-05-29T01:55:29.734Z,0
2023-05-29T01:57:13.438Z,1
2023-05-29T01:58:57.141Z,1
2023-05-29T02:00:40.862Z,1
2023-05-29T02:02:24.566Z,1
2023-05-29T02:04:08.234Z,1
2023-05-29T02:05:51.934Z,1
2023-05-29T02:07:35.657Z,1
2023-05-29T02:09:19.353Z,0
2023-05-29T02:11:03.065Z,1
2023-05-29T02:12:46.751Z,1
2023-05-29T02:14:30.453Z,1
2023-05-29T02:16:14.160Z,1
2023-05-29T02:17:57.854Z,1
2023-05-29T02:19:41.561Z,0
2023-05-29T02:21:25.262Z,1
2023-05-29T02:23:08.961Z,1
2023-05-29T02:24:52.656Z,2
2023-05-29T02:26:36.359Z,2
2023-05-29T02:28:20.070Z,0
2023-05-29T02:30:03.801Z,1
2023-05-29T02:31:47.465Z,1
2023-05-29T02:33:31.178Z,1
2023-05-29T02:35:14.885Z,1
2023-05-29T02:36:58.584Z,1
2023-05-29T02:38:42.272Z,1
2023-05-29T02:40:25.977Z,1
2023-05-29T02:42:09.676Z,1
2023-05-29T02:43:53.381Z,1
2023-05-29T02:45:37.147Z,2
2023-05-29T02:47:20.779Z,1
2023-05-29T02:49:04.486Z,1
2023-05-29T02:50:48.177Z,1
2023-05-29T02:52:31.881Z,2
2023-05-29T02:54:15.589Z,2
2023-05-29T02:55:59.300Z,3
2023-05-29T02:57:42.995Z,3
2023-05-29T02:59:26.689Z,3
2023-05-29T03:01:10.394Z,3
2023-05-29T03:02:54.103Z,5
2023-05-29T03:04:37.798Z,5
2023-05-29T03:06:21.495Z,6
2023-05-29T03:08:05.200Z,8
2023-05-29T03:09:48.942Z,9
2023-05-29T03:11:32.613Z,10
2023-05-29T03:13:16.303Z,13
2023-05-29T03:15:00.011Z,16
2023-05-29T03:16:43.715Z,18
2023-05-29T03:18:27.428Z,22
2023-05-29T03:20:11.120Z,25
2023-05-29T03:21:54.821Z,30
2023-05-29T03:23:38.520Z,34
2023-05-29T03:25:22.222Z,39
2023-05-29T03:27:05.926Z,46
2023-05-29T03:28:49.622Z,53
2023-05-29T03:30:33.331Z,60
2023-05-29T03:32:17.024Z,69
2023-05-29T03:34:00.733Z,78
2023-05-29T03:35:44.440Z,88
2023-05-29T03:37:28.132Z,98
2023-05-29T03:39:11.830Z,109
2023-05-29T03:40:55.545Z,120
2023-05-29T03:42:39.245Z,133
2023-05-29T03:44:22.939Z,145
2023-05-29T03:46:06.636Z,158
2023-05-29T03:47:50.343Z,170
2023-05-29T03:49:34.049Z,183
2023-05-29T03:51:17.741Z,198
2023-05-29T03:53:01.451Z,212
2023-05-29T03:54:45.144Z,226
2023-05-29T03:56:28.855Z,240
2023-05-29T03:58:12.559Z,254
2023-05-29T03:59:56.258Z,268
2023-05-29T04:01:39.957Z,282
2023-05-29T04:03:23.667Z,296
2023-05-29T04:05:07.365Z,312
2023-05-29T04:06:51.056Z,327
2023-05-29T04:08:34.758Z,348
2023-05-29T04:10:18.466Z,386
2023-05-29T04:12:02.210Z,421
2023-05-29T04:13:45.865Z,448
2023-05-29T04:15:29.568Z,465
2023-05-29T04:17:13.292Z,480
2023-05-29T04:18:56.983Z,495
2023-05-29T04:20:40.714Z,511
2023-05-29T04:22:24.379Z,526
2023-05-29T04:24:08.088Z,541
2023-05-29T04:25:51.783Z,554
2023-05-29T04:27:35.487Z,568
2023-05-29T04:29:19.185Z,583
2023-05-29T04:31:02.887Z,597
2023-05-29T04:32:46.608Z,610
2023-05-29T04:34:30.289Z,624
2023-05-29T04:36:14.004Z,635
2023-05-29T04:37:57.690Z,647
2023-05-29T04:39:41.416Z,660
2023-05-29T04:41:25.100Z,674
2023-05-29T04:43:08.796Z,691
2023-05-29T04:44:52.495Z,707
2023-05-29T04:46:36.189Z,723
2023-05-29T04:48:19.942Z,738
2023-05-29T04:50:03.606Z,733
2023-05-29T04:51:47.305Z,742
2023-05-29T04:53:30.994Z,741
2023-05-29T04:55:14.759Z,742
2023-05-29T04:56:58.397Z,742
2023-05-29T04:58:42.134Z,742
2023-05-29T05:00:25.804Z,742
2023-05-29T05:02:09.501Z,742
2023-05-29T05:03:53.212Z,732
2023-05-29T05:05:36.916Z,743
2023-05-29T05:07:20.612Z,742
2023-05-29T05:09:04.305Z,742
2023-05-29T05:10:48.024Z,742
2023-05-29T05:12:31.717Z,743
2023-05-29T05:14:15.429Z,741
2023-05-29T05:15:59.121Z,741
2023-05-29T05:17:42.828Z,733
2023-05-29T05:19:26.516Z,742
2023-05-29T05:21:10.233Z,743
2023-05-29T05:22:53.918Z,742
2023-05-29T05:24:37.619Z,742
2023-05-29T05:26:21.328Z,743
2023-05-29T05:28:05.024Z,742
2023-05-29T05:29:48.728Z,742
2023-05-29T05:31:32.457Z,740
2023-05-29T05:33:16.144Z,743
2023-05-29T05:34:59.837Z,743
2023-05-29T05:36:43.533Z,742
2023-05-29T05:38:27.233Z,742
2023-05-29T05:40:10.949Z,741
2023-05-29T05:41:54.643Z,743
2023-05-29T05:43:38.342Z,743
2023-05-29T05:45:22.048Z,741
2023-05-29T05:47:05.812Z,742
2023-05-29T05:50:33.148Z,742
2023-05-29T05:52:16.872Z,742
2023-05-29T05:54:00.559Z,740
2023-05-29T05:55:44.255Z,742
2023-05-29T05:57:27.956Z,743
2023-05-29T05:59:11.663Z,742
2023-05-29T06:00:55.363Z,742
2023-05-29T06:02:39.128Z,742
2023-05-29T06:04:22.797Z,743
2023-05-29T06:06:06.532Z,742
2023-05-29T06:07:50.196Z,742
2023-05-29T06:09:33.905Z,742
2023-05-29T06:11:17.629Z,742
2023-05-29T06:13:01.272Z,743
2023-05-29T06:14:44.975Z,742
2023-05-29T06:16:28.690Z,742
2023-05-29T06:18:12.445Z,742
2023-05-29T06:19:56.087Z,742
2023-05-29T06:23:23.473Z,742
2023-05-29T06:25:07.185Z,742
2023-05-29T06:26:50.871Z,743
2023-05-29T06:28:34.582Z,742
2023-05-29T06:30:18.316Z,741
2023-05-29T06:32:01.977Z,742
2023-05-29T06:33:45.691Z,742
2023-05-29T06:35:29.406Z,741
2023-05-29T06:37:13.088Z,743
2023-05-29T06:38:56.865Z,741
2023-05-29T06:40:40.508Z,742
2023-05-29T06:42:24.192Z,742
2023-05-29T06:44:07.948Z,743
2023-05-29T06:45:51.629Z,742
2023-05-29T06:47:35.345Z,742
2023-05-29T06:49:19.003Z,741
2023-05-29T06:51:02.709Z,743
2023-05-29T06:52:46.413Z,742
2023-05-29T06:54:30.175Z,742
2023-05-29T06:56:13.834Z,742
2023-05-29T06:57:57.514Z,741
2023-05-29T06:59:41.261Z,743
2023-05-29T07:01:24.928Z,742
2023-05-29T07:03:08.622Z,740
2023-05-29T07:04:52.322Z,743
2023-05-29T07:06:36.061Z,743
2023-05-29T07:08:19.726Z,742
2023-05-29T07:10:03.432Z,741
2023-05-29T07:11:47.132Z,743
2023-05-29T07:13:30.878Z,743
2023-05-29T07:15:14.524Z,742
2023-05-29T07:16:58.352Z,741
2023-05-29T07:18:41.936Z,742
2023-05-29T07:20:25.649Z,743
2023-05-29T07:22:09.379Z,743
2023-05-29T07:23:53.274Z,743
2023-05-29T07:25:36.811Z,742
2023-05-29T07:27:20.533Z,742
2023-05-29T07:29:04.157Z,743
2023-05-29T07:30:47.843Z,740
2023-05-29T07:32:31.596Z,742
2023-05-29T07:34:15.262Z,743
2023-05-29T07:35:59.077Z,743
2023-05-29T07:37:42.693Z,742
2023-05-29T07:39:26.402Z,742
2023-05-29T07:41:10.148Z,743
2023-05-29T07:42:53.771Z,743
2023-05-29T07:44:37.624Z,734
2023-05-29T07:46:21.179Z,742
2023-05-29T07:48:04.896Z,743
2023-05-29T07:49:48.578Z,742
2023-05-29T07:51:32.353Z,742
2023-05-29T07:53:15.998Z,742
2023-05-29T07:54:59.679Z,742
2023-05-29T07:56:43.435Z,742
2023-05-29T07:58:27.091Z,733
2023-05-29T08:00:10.804Z,742
2023-05-29T08:01:54.499Z,743
2023-05-29T08:03:38.190Z,743
2023-05-29T08:05:21.891Z,743
2023-05-29T08:07:05.603Z,742
2023-05-29T08:08:49.290Z,742
2023-05-29T08:10:32.994Z,746
2023-05-29T08:12:16.702Z,734
2023-05-29T08:17:27.822Z,743
2023-05-29T08:19:11.510Z,743
2023-05-29T08:20:55.223Z,742
2023-05-29T08:22:38.950Z,742
2023-05-29T08:24:22.623Z,742
2023-05-29T08:26:06.328Z,739
2023-05-29T08:27:50.068Z,743
2023-05-29T08:29:33.733Z,742
2023-05-29T08:31:17.428Z,741
2023-05-29T08:33:01.148Z,742
2023-05-29T08:34:44.826Z,743
2023-05-29T08:36:28.596Z,742
2023-05-29T08:38:12.254Z,743
2023-05-29T08:39:55.935Z,734
2023-05-29T08:41:39.671Z,742
2023-05-29T08:43:23.348Z,742
2023-05-29T08:45:07.066Z,742
2023-05-29T08:46:50.744Z,742
2023-05-29T08:48:34.445Z,742
2023-05-29T08:50:18.145Z,743
2023-05-29T08:52:01.857Z,742
2023-05-29T08:53:45.551Z,740
2023-05-29T08:55:29.242Z,742
2023-05-29T08:57:12.965Z,743
2023-05-29T08:58:56.656Z,741
2023-05-29T09:00:40.457Z,742
2023-05-29T09:02:24.065Z,742
2023-05-29T09:04:07.909Z,743
2023-05-29T09:05:51.612Z,743
2023-05-29T09:07:35.342Z,740
2023-05-29T09:09:18.956Z,742
2023-05-29T09:11:02.563Z,743
2023-05-29T09:12:46.457Z,742
2023-05-29T09:14:30.202Z,741
2023-05-29T09:16:13.737Z,741
2023-05-29T09:17:57.486Z,742
2023-05-29T09:19:41.236Z,742
2023-05-29T09:21:24.956Z,741
2023-05-29T09:23:08.678Z,741
2023-05-29T09:24:52.303Z,743
2023-05-29T09:26:35.987Z,742
2023-05-29T09:28:19.584Z,743
2023-05-29T09:30:03.429Z,741
2023-05-29T09:31:47.093Z,742
2023-05-29T09:33:30.923Z,742
2023-05-29T09:35:14.589Z,742
2023-05-29T09:36:58.240Z,743
2023-05-29T09:38:41.799Z,742
2023-05-29T09:40:25.680Z,742
2023-05-29T09:42:09.389Z,743
2023-05-29T09:43:52.916Z,742
2023-05-29T09:45:36.773Z,742
2023-05-29T09:47:20.556Z,742
2023-05-29T09:49:04.169Z,743
2023-05-29T09:50:47.920Z,742
2023-05-29T09:52:31.637Z,742
2023-05-29T09:54:15.326Z,741
2023-05-29T09:55:59.002Z,742
2023-05-29T09:57:42.705Z,743
2023-05-29T09:59:26.406Z,741
2023-05-29T10:01:10.129Z,742
2023-05-29T10:02:53.868Z,742
2023-05-29T10:04:37.338Z,742
2023-05-29T10:06:21.034Z,742
2023-05-29T10:08:04.866Z,733
2023-05-29T10:09:48.634Z,743
2023-05-29T10:11:32.141Z,742
2023-05-29T10:13:16.037Z,742
2023-05-29T10:14:59.707Z,742
2023-05-29T10:16:43.464Z,743
2023-05-29T10:18:27.172Z,742
2023-05-29T10:20:10.859Z,742
2023-05-29T10:21:54.475Z,734
2023-05-29T10:23:38.355Z,742
2023-05-29T10:25:21.934Z,742
2023-05-29T10:27:05.624Z,743
2023-05-29T10:28:49.377Z,742
2023-05-29T10:30:32.879Z,741
2023-05-29T10:32:16.580Z,742
2023-05-29T10:34:00.435Z,742
2023-05-29T10:35:44.100Z,735
2023-05-29T10:37:27.857Z,742
2023-05-29T10:39:11.538Z,743
2023-05-29T10:40:55.169Z,743
2023-05-29T10:42:38.834Z,742
2023-05-29T10:44:22.584Z,742
2023-05-29T10:46:06.177Z,742
2023-05-29T10:47:50.034Z,743
2023-05-29T10:49:33.717Z,742
2023-05-29T10:51:17.443Z,743
2023-05-29T10:53:01.042Z,743
2023-05-29T10:54:44.822Z,743
2023-05-29T10:56:28.537Z,743
2023-05-29T10:58:12.225Z,743
2023-05-29T10:59:55.865Z,742
2023-05-29T11:01:39.641Z,742
2023-05-29T11:03:23.273Z,743
2023-05-29T11:05:07.085Z,743
2023-05-29T11:06:50.694Z,742
2023-05-29T11:08:34.489Z,742
2023-05-29T11:10:18.113Z,743
2023-05-29T11:12:01.828Z,743
2023-05-29T11:13:45.380Z,742
2023-05-29T11:15:29.164Z,742
2023-05-29T11:17:12.958Z,743
2023-05-29T11:18:56.578Z,743
2023-05-29T11:20:40.384Z,743
2023-05-29T11:22:24.048Z,743
2023-05-29T11:24:07.747Z,743
2023-05-29T11:25:51.454Z,743
2023-05-29T11:27:35.171Z,743
2023-05-29T11:29:18.881Z,743
2023-05-29T11:31:02.561Z,742
2023-05-29T11:32:46.278Z,743
2023-05-29T11:34:29.796Z,744
2023-05-29T11:37:57.310Z,742
2023-05-29T11:39:41.006Z,743
2023-05-29T11:41:24.767Z,743
2023-05-29T11:43:08.439Z,743
2023-05-29T11:44:52.111Z,734
2023-05-29T11:46:35.914Z,743
2023-05-29T11:48:19.590Z,743
2023-05-29T11:50:03.241Z,743
2023-05-29T11:51:46.884Z,743
2023-05-29T11:53:30.717Z,744
2023-05-29T11:55:14.258Z,743
2023-05-29T11:56:58.013Z,743
2023-05-29T11:58:41.695Z,742
2023-05-29T12:00:25.483Z,742
2023-05-29T12:02:09.198Z,744
2023-05-29T12:03:52.727Z,743
2023-05-29T12:05:36.533Z,742
2023-05-29T12:07:20.135Z,742
2023-05-29T12:09:03.901Z,743
2023-05-29T12:10:47.596Z,743
2023-05-29T12:12:31.342Z,742
2023-05-29T12:14:15.125Z,743
2023-05-29T12:15:58.693Z,743
2023-05-29T12:17:42.359Z,743
2023-05-29T12:19:26.092Z,743
2023-05-29T12:21:09.838Z,742
2023-05-29T12:22:53.445Z,742
2023-05-29T12:24:37.140Z,743
2023-05-29T12:26:20.942Z,743
2023-05-29T12:28:04.636Z,742
2023-05-29T12:29:48.372Z,743
2023-05-29T12:31:32.031Z,743
2023-05-29T12:33:15.657Z,743
2023-05-29T12:34:59.381Z,743
2023-05-29T12:36:43.157Z,742
2023-05-29T12:38:26.809Z,743
2023-05-29T12:40:10.475Z,743
2023-05-29T12:41:54.171Z,743
2023-05-29T12:43:37.919Z,743
2023-05-29T12:45:21.565Z,742
2023-05-29T12:47:05.311Z,744
2023-05-29T12:48:48.976Z,743
2023-05-29T12:50:32.725Z,742
2023-05-29T12:52:16.378Z,742
2023-05-29T12:54:00.145Z,736
2023-05-29T12:55:43.789Z,743
2023-05-29T12:57:27.498Z,743
2023-05-29T12:59:11.192Z,742
2023-05-29T13:00:54.887Z,743
2023-05-29T13:02:38.591Z,744
2023-05-29T13:06:06.013Z,743
2023-05-29T13:07:49.692Z,734
2023-05-29T13:09:33.380Z,743
2023-05-29T13:11:17.202Z,743
2023-05-29T13:13:00.827Z,742
2023-05-29T13:14:44.533Z,743
2023-05-29T13:16:28.206Z,743
2023-05-29T13:18:11.894Z,744
2023-05-29T13:19:55.660Z,743
2023-05-29T13:21:39.326Z,739
2023-05-29T13:23:23.089Z,743
2023-05-29T13:25:06.708Z,743
2023-05-29T13:26:50.528Z,743
2023-05-29T13:28:34.119Z,743
2023-05-29T13:30:17.815Z,743
2023-05-29T13:32:01.616Z,744
2023-05-29T13:33:45.315Z,743
2023-05-29T13:35:29.002Z,742
2023-05-29T13:37:12.619Z,743
2023-05-29T13:38:56.413Z,744
2023-05-29T13:40:40.215Z,744
2023-05-29T13:42:23.895Z,743
2023-05-29T13:44:07.586Z,743
2023-05-29T13:45:51.236Z,743
2023-05-29T13:47:34.887Z,743
2023-05-29T13:49:18.547Z,734
2023-05-29T13:51:02.225Z,743
2023-05-29T13:52:46.026Z,742
2023-05-29T13:54:29.664Z,744
2023-05-29T13:56:13.501Z,743
2023-05-29T13:57:57.113Z,743
2023-05-29T13:59:40.763Z,743
2023-05-29T14:01:24.568Z,743
2023-05-29T14:03:08.270Z,734
2023-05-29T14:04:51.842Z,743
2023-05-29T14:06:35.706Z,743
2023-05-29T14:08:19.363Z,744
2023-05-29T14:10:03.062Z,744
2023-05-29T14:11:46.648Z,744
2023-05-29T14:13:30.376Z,743
2023-05-29T14:15:14.050Z,743
2023-05-29T14:16:57.807Z,734
2023-05-29T14:18:41.616Z,743
2023-05-29T14:20:25.165Z,743
2023-05-29T14:22:09.036Z,743
2023-05-29T14:23:52.679Z,744
2023-05-29T14:25:36.404Z,743
2023-05-29T14:27:20.101Z,743
2023-05-29T14:29:03.645Z,743
2023-05-29T14:30:47.356Z,743
2023-05-29T14:32:31.080Z,743
2023-05-29T14:34:14.755Z,744
2023-05-29T14:35:58.529Z,743
2023-05-29T14:37:42.271Z,743
2023-05-29T14:39:25.865Z,743
2023-05-29T14:41:09.781Z,743
2023-05-29T14:42:53.457Z,743
2023-05-29T14:44:37.100Z,743
2023-05-29T14:46:20.871Z,743
2023-05-29T14:48:04.607Z,743
2023-05-29T14:49:48.247Z,743
2023-05-29T14:51:31.972Z,743
2023-05-29T14:53:15.617Z,744
2023-05-29T14:54:59.369Z,744
2023-05-29T14:56:43.029Z,743
2023-05-29T14:58:26.753Z,743
2023-05-29T15:00:10.278Z,743
2023-05-29T15:01:54.081Z,743
2023-05-29T15:03:37.679Z,743
2023-05-29T15:05:21.598Z,743
2023-05-29T15:07:05.243Z,741
2023-05-29T15:08:48.935Z,744
2023-05-29T15:10:32.478Z,743
2023-05-29T15:12:16.313Z,743
2023-05-29T15:14:00.163Z,744
2023-05-29T15:15:43.790Z,744
2023-05-29T15:17:27.450Z,743
2023-05-29T15:19:11.149Z,744
2023-05-29T15:20:54.830Z,733
2023-05-29T15:22:38.579Z,743
2023-05-29T15:24:22.264Z,744
2023-05-29T15:26:05.977Z,743
2023-05-29T15:27:49.496Z,743
2023-05-29T15:29:33.193Z,743
2023-05-29T15:31:17.013Z,744
2023-05-29T15:33:00.759Z,743
2023-05-29T15:34:44.328Z,742
2023-05-29T15:36:28.181Z,744
2023-05-29T15:38:11.890Z,744
2023-05-29T15:39:55.399Z,742
2023-05-29T15:41:39.299Z,743
2023-05-29T15:43:23.018Z,743
2023-05-29T15:45:06.674Z,743
2023-05-29T15:46:50.388Z,744
2023-05-29T15:48:33.911Z,734
2023-05-29T15:50:17.683Z,744
2023-05-29T15:52:01.465Z,744
2023-05-29T15:53:45.074Z,744
2023-05-29T15:55:28.883Z,743
2023-05-29T15:57:12.562Z,744
2023-05-29T15:58:56.285Z,744
2023-05-29T16:00:39.917Z,744
2023-05-29T16:04:07.364Z,743
2023-05-29T16:05:51.043Z,743
2023-05-29T16:07:34.780Z,743
2023-05-29T16:09:18.478Z,744
2023-05-29T16:11:02.274Z,743
2023-05-29T16:12:45.902Z,742
2023-05-29T16:14:29.639Z,743
2023-05-29T16:16:13.256Z,744
2023-05-29T16:17:57.041Z,743
2023-05-29T16:19:40.596Z,743
2023-05-29T16:21:24.305Z,742
2023-05-29T16:23:08.187Z,744
2023-05-29T16:24:51.764Z,743
2023-05-29T16:26:35.417Z,743
2023-05-29T16:28:19.186Z,743
2023-05-29T16:30:02.823Z,743
2023-05-29T16:31:46.604Z,744
2023-05-29T16:33:30.164Z,744
2023-05-29T16:35:13.835Z,733
2023-05-29T16:36:57.550Z,743
2023-05-29T16:38:41.250Z,744
2023-05-29T16:40:25.029Z,745
2023-05-29T16:42:08.805Z,743
2023-05-29T16:43:52.379Z,744
2023-05-29T16:45:36.068Z,744
2023-05-29T16:47:19.753Z,744
2023-05-29T16:49:03.563Z,743
2023-05-29T16:50:47.154Z,743
2023-05-29T16:52:31.080Z,743
2023-05-29T16:54:14.741Z,744
2023-05-29T16:55:58.441Z,743
2023-05-29T16:57:41.965Z,743
2023-05-29T16:59:25.887Z,744
2023-05-29T17:01:09.485Z,744
2023-05-29T17:02:53.123Z,743
2023-05-29T17:04:36.945Z,743
2023-05-29T17:06:20.650Z,743
2023-05-29T17:08:04.394Z,744
2023-05-29T17:09:48.045Z,744
2023-05-29T17:11:31.601Z,744
2023-05-29T17:13:15.258Z,744
2023-05-29T17:14:59.102Z,745
2023-05-29T17:16:42.678Z,744
2023-05-29T17:18:26.464Z,743
2023-05-29T17:20:10.068Z,744
2023-05-29T17:21:53.786Z,744
2023-05-29T17:23:37.477Z,744
2023-05-29T17:25:21.186Z,744
2023-05-29T17:27:04.886Z,744
2023-05-29T17:28:48.631Z,744
2023-05-29T17:30:32.276Z,738
2023-05-29T17:32:15.983Z,744
2023-05-29T17:33:59.680Z,744
2023-05-29T17:35:43.387Z,743
2023-05-29T17:37:27.251Z,743
2023-05-29T17:39:10.834Z,744
2023-05-29T17:40:54.477Z,743
2023-05-29T17:42:38.174Z,743
2023-05-29T17:44:21.892Z,743
2023-05-29T17:46:05.578Z,745
2023-05-29T17:47:49.282Z,743
2023-05-29T17:49:32.975Z,744
2023-05-29T17:51:16.718Z,743
2023-05-29T17:53:00.409Z,744
2023-05-29T17:54:44.119Z,743
2023-05-29T17:56:27.782Z,744
2023-05-29T17:58:11.493Z,743
2023-05-29T17:59:55.186Z,744
2023-05-29T18:01:38.888Z,744
2023-05-29T18:03:22.612Z,744
2023-05-29T18:06:50.003Z,743
2023-05-29T18:08:33.698Z,744
2023-05-29T18:10:17.565Z,744
2023-05-29T18:12:01.352Z,741
2023-05-29T18:13:44.969Z,743
2023-05-29T18:15:28.508Z,744
2023-05-29T18:17:12.440Z,744
2023-05-29T18:18:55.957Z,744
2023-05-29T18:20:39.780Z,743
2023-05-29T18:22:23.448Z,744
2023-05-29T18:24:07.285Z,744
2023-05-29T18:25:50.844Z,744
2023-05-29T18:27:34.490Z,745
2023-05-29T18:29:18.177Z,743
2023-05-29T18:31:02.017Z,743
2023-05-29T18:32:45.695Z,744
2023-05-29T18:34:29.400Z,744
2023-05-29T18:36:13.159Z,743
2023-05-29T18:37:56.801Z,744
2023-05-29T18:39:40.512Z,743
2023-05-29T18:41:24.155Z,744
2023-05-29T18:43:07.888Z,719
2023-05-29T18:44:51.620Z,509
2023-05-29T18:46:35.148Z,434
2023-05-29T18:48:19.026Z,400
2023-05-29T18:50:02.672Z,376
2023-05-29T18:51:46.383Z,367
2023-05-29T18:53:30.170Z,434
2023-05-29T18:55:13.812Z,442
2023-05-29T18:56:57.321Z,508
2023-05-29T18:58:41.201Z,514
2023-05-29T19:00:24.900Z,331
2023-05-29T19:02:08.424Z,199
2023-05-29T19:03:52.258Z,152
2023-05-29T19:05:35.856Z,125
2023-05-29T19:07:19.684Z,101
2023-05-29T19:09:03.439Z,86
2023-05-29T19:10:47.062Z,73
2023-05-29T19:12:30.829Z,62
2023-05-29T19:14:14.338Z,53
2023-05-29T19:15:58.226Z,46
2023-05-29T19:17:41.913Z,40
2023-05-29T19:19:25.618Z,36
2023-05-29T19:21:09.141Z,33
2023-05-29T19:22:53.025Z,31
2023-05-29T19:24:36.722Z,29
2023-05-29T19:26:20.466Z,26
2023-05-29T19:28:04.127Z,21
2023-05-29T19:29:47.829Z,18
2023-05-29T19:31:31.493Z,13
2023-05-29T19:33:15.174Z,11
2023-05-29T19:34:58.919Z,9
2023-05-29T19:36:42.631Z,8
2023-05-29T19:38:26.293Z,6
2023-05-29T19:40:09.917Z,4
2023-05-29T19:41:53.743Z,4
2023-05-29T19:43:37.379Z,3
2023-05-29T19:45:21.146Z,2
2023-05-29T19:47:04.675Z,2
2023-05-29T19:48:48.557Z,2
2023-05-29T19:50:32.229Z,2
2023-05-29T19:52:15.923Z,2
2023-05-29T19:53:59.530Z,1
2023-05-29T19:55:43.308Z,2
2023-05-29T19:57:27.062Z,1
2023-05-29T19:59:10.678Z,0
2023-05-29T20:00:54.399Z,1
2023-05-29T20:02:38.022Z,1
2023-05-29T20:04:21.946Z,1
2023-05-29T20:06:05.556Z,1
2023-05-29T20:07:49.391Z,1
2023-05-29T20:09:32.931Z,1
2023-05-29T20:11:16.680Z,1
2023-05-29T20:13:00.378Z,1
2023-05-29T20:14:43.994Z,1
2023-05-29T20:16:27.772Z,1
2023-05-29T20:18:11.369Z,0
2023-05-29T20:19:55.153Z,0
2023-05-29T20:21:38.897Z,1
2023-05-29T20:23:22.556Z,1
2023-05-29T20:25:06.175Z,2
2023-05-29T20:26:49.831Z,1
2023-05-29T20:28:33.670Z,1
2023-05-29T20:30:17.390Z,1
2023-05-29T20:32:01.058Z,1
2023-05-29T20:33:44.731Z,1
2023-05-29T20:35:28.378Z,2
2023-05-29T20:37:12.157Z,1
2023-05-29T20:38:55.940Z,1
2023-05-29T20:40:39.580Z,0
2023-05-29T20:42:23.107Z,1
2023-05-29T20:44:06.998Z,0
2023-05-29T20:45:50.664Z,1
2023-05-29T20:47:34.396Z,1
2023-05-29T20:49:18.183Z,1
2023-05-29T20:51:01.829Z,1
2023-05-29T20:52:45.484Z,1
2023-05-29T20:54:29.220Z,0
2023-05-29T20:56:12.944Z,1
2023-05-29T20:57:56.666Z,1
2023-05-29T20:59:40.122Z,1
2023-05-29T21:01:23.851Z,1
2023-05-29T21:03:07.530Z,1
2023-05-29T21:04:51.463Z,1
2023-05-29T21:06:34.961Z,1
2023-05-29T21:08:18.739Z,1
2023-05-29T21:10:02.526Z,1
2023-05-29T21:11:46.226Z,0
2023-05-29T21:13:29.773Z,45
2023-05-29T21:15:13.458Z,1
2023-05-29T21:16:57.337Z,1
2023-05-29T21:18:41.018Z,1
2023-05-29T21:20:24.766Z,7
2023-05-29T21:22:08.385Z,8
2023-05-29T21:23:52.084Z,8
2023-05-29T21:25:35.866Z,8
2023-05-29T21:27:19.526Z,1
2023-05-29T21:29:03.223Z,1
2023-05-29T21:30:46.755Z,1
2023-05-29T21:32:30.592Z,0
2023-05-29T21:34:14.352Z,2
2023-05-29T21:35:58.147Z,1
2023-05-29T21:37:41.686Z,1
2023-05-29T21:39:25.473Z,1
2023-05-29T21:41:08.966Z,1
2023-05-29T21:42:52.804Z,1
2023-05-29T21:44:36.545Z,1
2023-05-29T21:46:20.286Z,2
2023-05-29T21:48:03.938Z,0
2023-05-29T21:49:47.472Z,1
2023-05-29T21:51:31.315Z,1
2023-05-29T21:53:15.029Z,8
2023-05-29T21:54:58.688Z,8
2023-05-29T21:56:42.479Z,8
2023-05-29T21:58:25.981Z,1
2023-05-29T22:00:09.862Z,1
2023-05-29T22:01:53.382Z,1
2023-05-29T22:03:37.226Z,1
2023-05-29T22:05:20.926Z,1
2023-05-29T22:07:04.483Z,1
2023-05-29T22:08:48.370Z,1
2023-05-29T22:10:32.077Z,1
2023-05-29T22:12:15.782Z,1
2023-05-29T22:13:59.443Z,1
2023-05-29T22:15:43.153Z,0
2023-05-29T22:17:26.699Z,1
2023-05-29T22:19:10.549Z,8
2023-05-29T22:20:54.316Z,8
2023-05-29T22:22:37.804Z,8
2023-05-29T22:24:21.633Z,1
2023-05-29T22:26:05.417Z,1
2023-05-29T22:29:32.798Z,1
2023-05-29T22:31:16.363Z,1
2023-05-29T22:33:00.170Z,1
2023-05-29T22:34:43.825Z,1
2023-05-29T22:36:27.641Z,1
2023-05-29T22:38:11.281Z,1
2023-05-29T22:39:55.057Z,1
2023-05-29T22:41:38.573Z,8
2023-05-29T22:43:22.418Z,7
2023-05-29T22:45:06.109Z,9
2023-05-29T22:46:49.796Z,8
2023-05-29T22:48:33.463Z,2
2023-05-29T22:50:17.210Z,1
2023-05-29T22:52:00.900Z,1
2023-05-29T22:53:44.575Z,0
2023-05-29T22:55:28.310Z,2
2023-05-29T22:57:12.041Z,1
2023-05-29T22:58:55.719Z,1
2023-05-29T23:00:39.421Z,2
2023-05-29T23:02:22.941Z,0
2023-05-29T23:04:06.843Z,1
2023-05-29T23:05:50.516Z,1
2023-05-29T23:07:34.132Z,1
2023-05-29T23:09:17.881Z,1
2023-05-29T23:11:01.443Z,1
2023-05-29T23:12:45.312Z,1
2023-05-29T23:14:29.021Z,2
2023-05-29T23:16:12.622Z,1
2023-05-29T23:17:56.471Z,1
2023-05-29T23:19:39.945Z,1
2023-05-29T23:21:23.651Z,1
2023-05-29T23:23:07.364Z,9
2023-05-29T23:24:51.045Z,8
2023-05-29T23:26:34.947Z,8
2023-05-29T23:30:02.343Z,1
2023-05-29T23:31:45.977Z,1
2023-05-29T23:33:29.644Z,0
2023-05-29T23:35:13.345Z,1
2023-05-29T23:36:57.145Z,1
2023-05-29T23:38:40.717Z,0
2023-05-29T23:40:24.566Z,2
2023-05-29T23:42:08.073Z,1
2023-05-29T23:43:51.924Z,1
2023-05-29T23:45:35.629Z,1
2023-05-29T23:47:19.245Z,1
2023-05-29T23:49:03.018Z,7
2023-05-29T23:50:46.567Z,8
2023-05-29T23:52:30.543Z,2
2023-05-29T23:55:57.865Z,0
2023-05-29T23:57:41.539Z,1
2023-05-29T23:59:25.299Z,0
